Time;durP1;ratioP1;P1;durP2;ratioP2;P2;SDS_P1;SDS_P2;PMS_P1;PMS_P2;Temp;Humidity;BMP_temperature;BMP_pressure;BME280_temperature;BME280_humidity;BME280_pressure;Samples;Min_cycle;Max_cycle;Signal;HPM_P1;HPM_P2
2021/03/24 00:01:25;;;;;;;16.90;8.33;;;;;;;6.45;69.04;101258.55;1742838;81;25761;-79
2021/03/24 00:03:53;;;;;;;17.42;8.88;;;;;;;6.43;69.17;101258.70;1743080;81;26321;-79
2021/03/24 00:06:21;;;;;;;14.10;8.08;;;;;;;6.39;69.31;101259.98;1721836;81;25832;-77
2021/03/24 00:08:48;;;;;;;16.48;7.62;;;;;;;6.37;69.29;101269.08;1744257;81;28472;-78
2021/03/24 00:11:16;;;;;;;17.67;7.70;;;;;;;6.36;69.39;101264.73;1748183;81;25906;-78
2021/03/24 00:13:44;;;;;;;17.80;8.13;;;;;;;6.34;69.61;101271.53;1706058;81;25852;-79
2021/03/24 00:16:12;;;;;;;13.58;8.20;;;;;;;6.32;69.46;101266.00;1704100;81;25853;-78
2021/03/24 00:18:39;;;;;;;15.40;7.10;;;;;;;6.29;69.54;101268.45;1707389;81;25790;-78
2021/03/24 00:21:09;;;;;;;13.70;7.47;;;;;;;6.27;69.62;101267.75;1711058;82;28561;-79
2021/03/24 00:23:36;;;;;;;16.40;6.45;;;;;;;6.26;69.68;101270.56;1721295;81;25860;-79
2021/03/24 00:26:04;;;;;;;13.55;6.97;;;;;;;6.23;69.50;101262.38;1729775;81;26204;-79
2021/03/24 00:28:31;;;;;;;14.50;7.05;;;;;;;6.20;69.50;101260.02;1705307;81;26506;-78
2021/03/24 00:30:58;;;;;;;19.07;7.67;;;;;;;6.18;69.59;101262.80;1735563;81;25868;-79
2021/03/24 00:33:27;;;;;;;15.68;7.33;;;;;;;6.14;69.57;101262.73;1723883;82;27309;-80
2021/03/24 00:35:55;;;;;;;15.83;6.45;;;;;;;6.12;69.64;101258.05;1702131;81;25827;-79
2021/03/24 00:38:24;;;;;;;10.28;6.50;;;;;;;6.10;69.71;101259.17;1731779;81;25795;-79
2021/03/24 00:40:56;;;;;;;13.50;6.83;;;;;;;6.05;69.94;101254.27;1757709;80;25767;-79
2021/03/24 00:43:25;;;;;;;13.13;6.47;;;;;;;6.02;69.84;101266.55;1708845;81;25980;-78
2021/03/24 00:45:52;;;;;;;15.45;6.97;;;;;;;5.99;70.00;101263.30;1702617;81;27626;-78
2021/03/24 00:48:29;;;;;;;13.35;7.50;;;;;;;5.98;69.93;101266.96;1742999;81;26346;-79
2021/03/24 00:50:58;;;;;;;14.73;7.08;;;;;;;5.95;70.07;101269.41;1731216;81;25742;-79
2021/03/24 00:53:26;;;;;;;15.60;7.47;;;;;;;5.93;70.02;101271.85;1712021;82;26020;-80
2021/03/24 00:55:53;;;;;;;14.65;6.53;;;;;;;5.91;70.07;101265.84;1695100;81;25845;-79
2021/03/24 00:58:21;;;;;;;9.75;6.33;;;;;;;5.89;70.36;101269.97;1743220;81;28615;-80
2021/03/24 01:00:50;;;;;;;12.43;6.80;;;;;;;5.88;70.24;101269.61;1706924;81;25845;-78
2021/03/24 01:03:18;;;;;;;11.20;6.12;;;;;;;5.87;70.39;101277.25;1717414;80;25964;-78
2021/03/24 01:05:49;;;;;;;16.17;7.03;;;;;;;5.87;70.36;101271.09;1720008;80;26527;-79
2021/03/24 01:08:25;;;;;;;12.73;6.90;;;;;;;5.87;70.38;101279.06;1731221;80;25895;-78
2021/03/24 01:10:55;;;;;;;12.68;5.85;;;;;;;5.84;70.51;101284.65;1714460;82;28534;-78
2021/03/24 01:13:25;;;;;;;14.95;6.15;;;;;;;5.82;70.70;101290.08;1697190;83;25928;-79
2021/03/24 01:15:53;;;;;;;13.50;7.28;;;;;;;5.79;70.63;101278.41;1722546;81;25823;-78
2021/03/24 01:18:22;;;;;;;14.28;6.72;;;;;;;5.77;70.78;101277.72;1685682;81;26551;-77
2021/03/24 01:20:50;;;;;;;17.77;7.83;;;;;;;5.76;70.74;101281.82;1717823;81;25335;-79
2021/03/24 01:23:18;;;;;;;12.90;7.37;;;;;;;5.74;70.87;101281.13;1704932;82;28059;-78
2021/03/24 01:25:46;;;;;;;11.30;6.05;;;;;;;5.71;70.79;101278.77;1728899;81;25788;-78
2021/03/24 01:28:25;;;;;;;14.65;6.67;;;;;;;5.69;71.19;101272.75;1744296;81;25751;-78
2021/03/24 01:31:00;;;;;;;18.65;6.97;;;;;;;5.67;70.99;101270.69;1687108;84;26455;-78
2021/03/24 01:33:28;;;;;;;14.28;7.90;;;;;;;5.64;71.13;101284.27;1720174;82;25832;-79
2021/03/24 01:35:56;;;;;;;14.18;6.92;;;;;;;5.63;71.31;101285.23;1701063;81;28673;-79
2021/03/24 01:38:24;;;;;;;13.60;7.30;;;;;;;5.61;71.31;101280.55;1719674;81;25736;-79
2021/03/24 01:40:55;;;;;;;12.18;6.60;;;;;;;5.59;71.27;101283.35;1710331;82;25849;-79
2021/03/24 01:43:36;;;;;;;18.95;8.28;;;;;;;5.59;71.53;101288.67;1702865;82;25784;-77
2021/03/24 01:46:33;;;;;;;17.75;7.12;;;;;;;5.58;71.46;101276.34;1717457;82;26098;-78
2021/03/24 01:49:23;;;;;;;16.75;7.67;;;;;;;5.58;71.39;101280.33;1703508;82;27544;-79
2021/03/24 01:52:01;;;;;;;14.33;6.95;;;;;;;5.58;71.40;101281.66;1695987;83;26195;-79
2021/03/24 01:54:39;;;;;;;15.65;7.15;;;;;;;5.57;71.41;101281.33;1705673;82;25880;-78
2021/03/24 01:57:26;;;;;;;14.30;8.18;;;;;;;5.57;71.46;101277.34;1721225;82;25892;-79
2021/03/24 01:59:55;;;;;;;14.50;7.42;;;;;;;5.58;71.53;101279.52;1721841;83;25796;-78
2021/03/24 02:02:28;;;;;;;14.40;7.40;;;;;;;5.60;71.42;101285.05;1709996;82;27693;-78
2021/03/24 02:04:56;;;;;;;14.87;7.85;;;;;;;5.61;71.38;101280.55;1703466;82;25960;-79
2021/03/24 02:08:04;;;;;;;17.35;8.13;;;;;;;5.58;71.54;101289.62;1693574;82;25962;-79
2021/03/24 02:10:37;;;;;;;16.10;7.90;;;;;;;5.57;71.47;101286.64;1708498;80;26559;-79
2021/03/24 02:13:12;;;;;;;16.12;7.53;;;;;;;5.59;71.50;101286.01;1712930;81;25838;-78
2021/03/24 02:15:44;;;;;;;12.60;7.35;;;;;;;5.58;71.67;101293.62;1708136;81;28269;-77
2021/03/24 02:18:13;;;;;;;13.68;7.65;;;;;;;5.57;71.57;101290.63;1722230;81;25750;-78
2021/03/24 02:20:46;;;;;;;17.92;7.72;;;;;;;5.56;71.59;101292.91;1707998;82;25827;-79
2021/03/24 02:23:31;;;;;;;18.10;8.33;;;;;;;5.56;71.58;101294.25;1708530;81;26693;-78
2021/03/24 02:26:09;;;;;;;17.20;8.05;;;;;;;5.55;71.57;101289.92;1690035;81;26526;-79
2021/03/24 02:28:39;;;;;;;18.62;8.75;;;;;;;5.56;71.66;101289.45;1701927;82;27572;-79
2021/03/24 02:31:10;;;;;;;14.98;8.08;;;;;;;5.53;71.64;101293.21;1738279;81;25799;-79
2021/03/24 02:33:41;;;;;;;14.65;7.92;;;;;;;5.55;71.63;101292.58;1720573;82;25940;-79
2021/03/24 02:36:13;;;;;;;16.48;7.72;;;;;;;5.57;71.65;101296.42;1699428;82;25819;-79
2021/03/24 02:38:44;;;;;;;18.10;8.13;;;;;;;5.60;71.69;101298.81;1713718;81;26364;-78
2021/03/24 02:41:13;;;;;;;14.95;7.83;;;;;;;5.61;71.62;101302.66;1686335;81;27563;-77
2021/03/24 02:43:42;;;;;;;18.10;9.05;;;;;;;5.66;71.67;101303.09;1711705;82;25928;-78
2021/03/24 02:46:12;;;;;;;17.82;8.60;;;;;;;5.62;71.55;101304.34;1676348;81;25753;-78
2021/03/24 02:48:42;;;;;;;17.23;8.45;;;;;;;5.62;71.59;101310.99;1727189;81;25769;-79
2021/03/24 02:51:14;;;;;;;15.38;7.45;;;;;;;5.63;71.60;101307.34;1708370;81;25794;-79
2021/03/24 02:53:43;;;;;;;14.65;7.92;;;;;;;5.63;71.57;101313.98;1737374;81;27671;-79
2021/03/24 02:56:11;;;;;;;17.55;8.05;;;;;;;5.61;71.58;101303.98;1712090;82;26026;-77
2021/03/24 02:58:39;;;;;;;15.53;8.63;;;;;;;5.60;71.62;101317.42;1726949;81;26444;-79
2021/03/24 03:01:21;;;;;;;16.52;8.00;;;;;;;5.59;71.69;101315.72;1742904;81;26483;-78
2021/03/24 03:03:55;;;;;;;20.97;8.98;;;;;;;5.51;71.76;101312.92;1735335;81;26032;-78
2021/03/24 03:06:27;;;;;;;17.07;8.18;;;;;;;5.49;71.82;101313.88;1718453;81;28795;-77
2021/03/24 03:09:05;;;;;;;18.90;8.90;;;;;;;5.48;72.06;101314.02;1696935;81;25865;-80
2021/03/24 03:12:02;;;;;;;17.77;8.45;;;;;;;5.45;71.99;101315.13;1737224;80;25796;-78
2021/03/24 03:15:07;;;;;;;15.32;8.43;;;;;;;5.47;72.24;101317.16;1722892;82;25774;-79
2021/03/24 03:17:54;;;;;;;21.37;9.10;;;;;;;5.46;72.04;101326.13;1690174;83;25838;-79
2021/03/24 03:20:30;;;;;;;17.32;7.92;;;;;;;5.47;72.12;101324.32;1691401;82;28412;-78
2021/03/24 03:23:09;;;;;;;16.77;9.03;;;;;;;5.47;72.09;101325.65;1726438;82;26107;-78
2021/03/24 03:25:39;;;;;;;18.67;9.33;;;;;;;5.45;72.13;101324.44;1727322;81;25791;-80
2021/03/24 03:28:11;;;;;;;15.35;7.47;;;;;;;5.42;72.18;101315.91;1689551;82;26272;-79
2021/03/24 03:30:41;;;;;;;19.40;8.85;;;;;;;5.38;72.41;101316.67;1701031;82;26102;-79
2021/03/24 03:33:12;;;;;;;17.35;8.30;;;;;;;5.36;72.32;101316.45;1714919;82;28393;-78
2021/03/24 03:35:41;;;;;;;17.85;9.53;;;;;;;5.34;72.36;101313.95;1687068;84;25835;-77
2021/03/24 03:38:16;;;;;;;15.53;8.98;;;;;;;5.33;72.41;101320.22;1703904;82;26358;-78
2021/03/24 03:40:46;;;;;;;15.50;8.73;;;;;;;5.33;72.55;101320.70;1692557;82;26105;-78
2021/03/24 03:43:17;;;;;;;16.82;9.23;;;;;;;5.31;72.57;101323.98;1728927;82;25841;-78
2021/03/24 03:45:48;;;;;;;16.40;8.20;;;;;;;5.25;72.54;101328.03;1704755;82;27529;-79
2021/03/24 03:48:17;;;;;;;;;;;;;;;5.23;72.86;101323.34;1707045;82;25879;-78
2021/03/24 03:50:50;;;;;;;15.60;9.25;;;;;;;5.16;72.80;101329.31;1728836;82;25759;-79
2021/03/24 03:53:41;;;;;;;18.52;8.95;;;;;;;5.12;72.90;101326.57;1719492;82;25875;-78
2021/03/24 03:56:17;;;;;;;21.37;9.05;;;;;;;5.11;73.01;101325.72;1692812;83;25718;-78
2021/03/24 03:59:07;;;;;;;15.83;8.65;;;;;;;5.09;72.95;101323.69;1718261;82;28430;-77
2021/03/24 04:01:46;;;;;;;14.40;8.35;;;;;;;5.13;73.02;101329.59;1705255;82;26406;-78
2021/03/24 04:04:24;;;;;;;14.65;8.75;;;;;;;5.13;73.12;101321.63;1725940;82;26117;-78
2021/03/24 04:07:06;;;;;;;18.82;9.30;;;;;;;5.08;73.16;101326.48;1698826;82;25733;-78
2021/03/24 04:09:37;;;;;;;21.68;9.25;;;;;;;5.02;73.22;101322.56;1701117;82;26676;-78
2021/03/24 04:12:06;;;;;;;;;;;;;;;5.03;73.23;101324.71;1694810;83;27546;-79
2021/03/24 04:14:33;;;;;;;24.85;9.25;;;;;;;5.05;73.30;101327.59;1696026;83;25914;-78
2021/03/24 04:17:01;;;;;;;22.73;10.32;;;;;;;5.02;73.25;101326.55;1695415;83;25740;-78
2021/03/24 04:19:32;;;;;;;15.80;9.05;;;;;;;5.02;73.25;101325.70;1707943;83;25814;-78
2021/03/24 04:22:02;;;;;;;21.62;10.05;;;;;;;5.07;73.23;101322.17;1699596;82;26101;-79
2021/03/24 04:24:38;;;;;;;16.20;9.25;;;;;;;5.07;73.23;101328.30;1670981;83;27635;-79
2021/03/24 04:27:08;;;;;;;18.73;10.35;;;;;;;5.10;73.28;101326.72;1721260;82;26479;-77
2021/03/24 04:29:44;;;;;;;18.70;9.10;;;;;;;5.09;73.24;101317.05;1694055;82;25932;-78
2021/03/24 04:32:12;;;;;;;17.25;10.05;;;;;;;5.11;73.27;101328.37;1723243;82;25896;-79
2021/03/24 04:34:41;;;;;;;17.62;9.45;;;;;;;5.13;73.19;101333.58;1688158;83;26568;-78
2021/03/24 04:37:29;;;;;;;16.52;8.93;;;;;;;5.14;73.24;101324.63;1683703;83;27061;-78
2021/03/24 04:40:08;;;;;;;19.07;10.03;;;;;;;5.18;73.17;101320.72;1720533;82;25851;-78
2021/03/24 04:43:01;;;;;;;18.80;9.85;;;;;;;5.19;73.15;101327.72;1720574;82;25817;-79
2021/03/24 04:45:50;;;;;;;19.07;10.65;;;;;;;5.24;73.11;101325.48;1719342;82;26524;-78
2021/03/24 04:48:22;;;;;;;16.32;8.88;;;;;;;5.29;73.17;101327.27;1686965;83;25861;-78
2021/03/24 04:51:04;;;;;;;19.02;9.33;;;;;;;5.32;73.09;101328.33;1717985;82;28453;-78
2021/03/24 04:53:36;;;;;;;21.95;10.03;;;;;;;5.38;73.11;101327.30;1720911;82;25943;-79
2021/03/24 04:56:06;;;;;;;19.25;9.43;;;;;;;5.44;73.01;101334.73;1686410;83;25903;-78
2021/03/24 04:58:44;;;;;;;20.80;9.53;;;;;;;5.49;72.90;101336.47;1711670;82;26254;-79
2021/03/24 05:01:17;;;;;;;17.40;9.93;;;;;;;5.54;72.84;101338.72;1668559;83;26398;-78
2021/03/24 05:03:47;;;;;;;18.05;9.33;;;;;;;5.54;72.84;101336.58;1713561;82;27589;-79
2021/03/24 05:06:29;;;;;;;18.85;10.05;;;;;;;5.52;72.76;101334.03;1689194;83;25860;-78
2021/03/24 05:08:57;;;;;;;16.60;10.10;;;;;;;5.52;72.76;101334.03;1689570;83;25446;-79
2021/03/24 05:11:45;;;;;;;18.02;9.68;;;;;;;5.58;72.78;101346.77;1708349;82;25808;-78
2021/03/24 05:14:39;;;;;;;19.05;9.75;;;;;;;5.58;72.69;101340.64;1740900;81;25718;-77
2021/03/24 05:17:14;;;;;;;17.25;8.78;;;;;;;5.62;72.71;101351.34;1709414;81;27556;-78
2021/03/24 05:19:43;;;;;;;17.40;9.30;;;;;;;5.65;72.80;101352.37;1712798;81;26393;-78
2021/03/24 05:22:33;;;;;;;17.32;9.95;;;;;;;5.68;72.65;101355.63;1687405;82;25790;-79
2021/03/24 05:25:24;;;;;;;18.70;9.78;;;;;;;5.68;72.60;101355.63;1720913;81;26227;-78
2021/03/24 05:28:02;;;;;;;17.23;9.87;;;;;;;5.71;72.64;101362.48;1700465;83;25870;-77
2021/03/24 05:30:34;;;;;;;19.60;9.20;;;;;;;5.73;72.60;101361.86;1706620;82;28276;-79
2021/03/24 05:33:27;;;;;;;16.48;9.18;;;;;;;5.74;72.75;101363.52;1676468;82;25953;-78
2021/03/24 05:36:05;;;;;;;22.00;11.33;;;;;;;5.75;72.66;101364.70;1720845;82;26396;-78
2021/03/24 05:38:43;;;;;;;18.05;10.10;;;;;;;5.77;72.52;101372.56;1733695;81;25962;-78
2021/03/24 05:41:33;;;;;;;21.68;9.20;;;;;;;5.74;72.48;101371.02;1757970;80;25936;-79
2021/03/24 05:44:24;;;;;;;29.17;13.23;;;;;;;5.73;72.50;101370.66;1777998;80;28546;-79
2021/03/24 05:47:19;;;;;;;17.67;10.03;;;;;;;5.73;72.61;101379.14;1775094;80;25861;-79
2021/03/24 05:50:13;;;;;;;18.57;10.13;;;;;;;5.75;72.65;101383.83;1762147;80;25796;-78
2021/03/24 05:52:49;;;;;;;16.48;9.65;;;;;;;5.76;72.62;101382.35;1747156;80;26612;-78
2021/03/24 05:55:56;;;;;;;18.25;9.15;;;;;;;5.73;72.52;101382.61;1761376;80;26478;-79
2021/03/24 05:59:08;;;;;;;20.17;11.33;;;;;;;5.75;72.64;101382.50;1779832;80;27532;-78
2021/03/24 06:01:48;;;;;;;19.25;10.13;;;;;;;5.79;72.78;101379.44;1753738;80;26138;-77
2021/03/24 06:04:45;;;;;;;17.42;10.60;;;;;;;5.79;72.74;101377.25;1757386;80;32655;-77
2021/03/24 06:07:38;;;;;;;25.25;11.95;;;;;;;5.78;72.76;101384.38;1759195;80;25803;-79
2021/03/24 06:10:22;;;;;;;18.95;10.78;;;;;;;5.75;72.86;101381.98;1777238;79;25728;-79
2021/03/24 06:13:01;;;;;;;20.12;11.70;;;;;;;5.73;72.96;101381.28;1765778;80;27609;-80
2021/03/24 06:16:02;;;;;;;25.40;11.63;;;;;;;5.76;73.06;101383.68;1797763;78;26136;-81
2021/03/24 06:19:17;;;;;;;21.62;11.15;;;;;;;5.79;73.12;101388.73;1770437;80;25897;-78
2021/03/24 06:21:55;;;;;;;22.82;12.13;;;;;;;5.84;73.24;101386.52;1799090;78;26060;-78
2021/03/24 06:25:05;;;;;;;29.12;11.80;;;;;;;5.82;73.25;101392.91;1781589;78;26086;-78
2021/03/24 06:27:47;;;;;;;23.70;12.20;;;;;;;5.84;73.28;101387.00;1771825;78;27317;-79
2021/03/24 06:30:34;;;;;;;24.98;12.65;;;;;;;5.85;73.28;101395.34;1797861;78;26071;-79
2021/03/24 06:33:46;;;;;;;21.65;11.50;;;;;;;5.86;73.46;101397.05;1799213;78;26666;-77
2021/03/24 06:36:46;;;;;;;21.30;10.90;;;;;;;5.81;73.16;101393.42;1736077;81;26420;-78
2021/03/24 06:39:46;;;;;;;23.98;11.90;;;;;;;5.75;73.23;101388.63;1765427;80;25789;-79
2021/03/24 06:42:51;;;;;;;23.70;12.73;;;;;;;5.73;73.23;101391.91;1782058;78;28509;-78
2021/03/24 06:45:39;;;;;;;21.68;11.53;;;;;;;5.73;73.34;101400.41;1779600;78;26110;-78
2021/03/24 06:48:48;;;;;;;19.75;11.63;;;;;;;5.74;73.41;101401.59;1792233;78;25794;-78
2021/03/24 06:51:58;;;;;;;18.65;9.85;;;;;;;5.72;73.32;101404.88;1750492;78;25953;-78
2021/03/24 06:55:06;;;;;;;24.10;11.55;;;;;;;5.73;73.39;101406.53;1777004;78;25834;-78
2021/03/24 06:57:57;;;;;;;29.18;18.25;;;;;;;5.80;73.94;101405.50;1788263;78;27593;-78
2021/03/24 07:01:12;;;;;;;25.57;14.70;;;;;;;5.98;73.99;101407.41;1761476;78;26270;-78
2021/03/24 07:04:06;;;;;;;23.47;14.25;;;;;;;6.17;73.68;101408.77;1774906;78;25838;-78
2021/03/24 07:07:06;;;;;;;25.08;13.15;;;;;;;6.29;73.02;101415.30;1765453;80;26513;-78
2021/03/24 07:09:48;;;;;;;23.98;13.28;;;;;;;6.37;73.00;101424.26;1775730;80;25784;-80
2021/03/24 07:12:54;;;;;;;22.50;12.15;;;;;;;6.47;73.00;101425.09;1794321;78;28154;-78
2021/03/24 07:15:44;;;;;;;23.77;13.08;;;;;;;6.48;72.33;101425.42;1724074;80;25872;-78
2021/03/24 07:19:08;;;;;;;25.05;13.15;;;;;;;6.45;72.15;101426.20;1719453;81;25782;-79
2021/03/24 07:22:06;;;;;;;25.23;12.98;;;;;;;6.43;72.01;101434.34;1780542;78;25840;-78
2021/03/24 07:24:57;;;;;;;22.60;11.10;;;;;;;6.46;72.06;101439.36;1788936;78;25693;-79
2021/03/24 07:27:55;;;;;;;;;;;;;;;6.37;71.40;101438.89;1801168;78;28594;-79
2021/03/24 07:30:52;;;;;;;21.85;12.40;;;;;;;6.32;71.55;101440.27;1792864;78;25921;-77
2021/03/24 07:34:02;;;;;;;20.90;11.57;;;;;;;6.33;71.86;101440.13;1776448;79;25802;-78
2021/03/24 07:37:22;;;;;;;25.37;11.55;;;;;;;6.40;71.91;101445.25;1783181;78;25836;-80
2021/03/24 07:40:19;;;;;;;23.10;11.38;;;;;;;6.44;71.73;101446.64;1777788;78;25771;-78
2021/03/24 07:43:13;;;;;;;25.52;12.80;;;;;;;6.47;71.64;101446.86;1778755;78;27601;-79
2021/03/24 07:45:58;;;;;;;23.20;12.20;;;;;;;6.53;71.63;101446.30;1756086;80;26101;-78
2021/03/24 07:48:44;;;;;;;22.45;12.05;;;;;;;6.52;71.39;101449.95;1784163;78;25751;-78
2021/03/24 07:51:43;;;;;;;19.67;12.00;;;;;;;6.55;71.41;101449.66;1741941;80;26074;-79
2021/03/24 07:54:52;;;;;;;23.75;11.78;;;;;;;6.55;71.19;101447.84;1746273;81;25931;-78
2021/03/24 07:57:35;;;;;;;19.62;11.18;;;;;;;6.62;71.49;101444.13;1753389;78;27411;-78
2021/03/24 08:00:14;;;;;;;25.12;12.13;;;;;;;6.67;71.35;101447.23;1778333;80;25823;-78
2021/03/24 08:03:20;;;;;;;21.60;10.93;;;;;;;6.67;71.07;101453.88;1800141;78;25710;-79
2021/03/24 08:06:13;;;;;;;23.52;12.13;;;;;;;6.63;71.17;101451.97;1802120;78;25705;-79
2021/03/24 08:08:52;;;;;;;29.85;12.80;;;;;;;6.70;71.32;101449.11;1745510;78;26346;-78
2021/03/24 08:11:50;;;;;;;21.90;12.53;;;;;;;6.78;71.19;101445.23;1768355;78;28217;-77
2021/03/24 08:14:26;;;;;;;22.37;12.60;;;;;;;6.83;71.39;101454.98;1776995;79;25792;-78
2021/03/24 08:17:30;;;;;;;20.52;13.00;;;;;;;6.88;71.10;101448.75;1789219;79;26421;-79
2021/03/24 08:20:06;;;;;;;25.30;13.30;;;;;;;6.95;71.31;101450.32;1777478;79;26418;-78
2021/03/24 08:23:00;;;;;;;22.40;13.00;;;;;;;7.02;71.29;101451.44;1764795;79;25804;-78
2021/03/24 08:26:11;;;;;;;24.60;12.93;;;;;;;7.03;70.83;101452.62;1748534;80;27505;-78
2021/03/24 08:28:42;;;;;;;;;;;;;;;7.01;70.90;101445.27;1756765;80;25737;-77
2021/03/24 08:31:44;;;;;;;18.90;10.85;;;;;;;7.06;70.91;101452.02;1732872;82;25916;-78
2021/03/24 08:34:31;;;;;;;;;;;;;;;7.09;71.18;101457.89;1691898;82;25825;-77
2021/03/24 08:37:22;;;;;;;22.75;11.12;;;;;;;7.15;70.60;101455.97;1732463;82;25759;-79
2021/03/24 08:40:05;;;;;;;;;;;;;;;7.14;70.67;101452.98;1717312;82;28442;-78
2021/03/24 08:43:18;;;;;;;18.57;11.12;;;;;;;7.14;70.42;101451.64;1740822;80;26033;-78
2021/03/24 08:46:29;;;;;;;19.02;10.93;;;;;;;7.14;70.39;101453.46;1713035;81;25877;-78
2021/03/24 08:49:22;;;;;;;21.10;13.40;;;;;;;7.19;70.44;101449.86;1688250;82;26075;-78
2021/03/24 08:52:16;;;;;;;22.60;10.85;;;;;;;7.25;70.47;101449.30;1745749;81;25734;-78
2021/03/24 08:55:13;;;;;;;22.65;11.38;;;;;;;7.28;70.25;101454.33;1707379;82;27615;-78
2021/03/24 08:58:16;;;;;;;26.55;11.73;;;;;;;7.27;69.98;101450.00;1724569;80;25818;-78
2021/03/24 09:01:22;;;;;;;28.20;12.13;;;;;;;7.26;70.03;101448.30;1727432;82;25750;-78
2021/03/24 09:04:01;;;;;;;25.20;12.13;;;;;;;7.29;70.36;101446.17;1734434;81;25871;-79
2021/03/24 09:06:54;;;;;;;22.35;12.43;;;;;;;7.26;70.16;101442.48;1712763;81;26085;-78
2021/03/24 09:09:34;;;;;;;;;;;;;;;7.26;70.22;101440.31;1728092;82;27345;-77
2021/03/24 09:12:08;;;;;;;22.67;11.65;;;;;;;7.31;70.25;101445.57;1737596;81;26113;-78
2021/03/24 09:14:43;;;;;;;24.60;12.07;;;;;;;7.34;70.07;101439.93;1737263;81;26518;-78
2021/03/24 09:17:52;;;;;;;23.30;11.73;;;;;;;7.37;70.07;101443.65;1693474;83;26325;-79
2021/03/24 09:21:03;;;;;;;24.67;11.45;;;;;;;7.36;69.90;101442.44;1720928;82;25793;-78
2021/03/24 09:23:53;;;;;;;27.42;12.28;;;;;;;7.39;69.85;101444.34;1696261;82;27554;-77
2021/03/24 09:26:57;;;;;;;20.97;11.70;;;;;;;7.44;69.65;101447.91;1721232;82;25913;-78
2021/03/24 09:29:38;;;;;;;23.92;12.63;;;;;;;7.38;69.54;101447.98;1708782;82;25774;-78
2021/03/24 09:32:38;;;;;;;25.05;12.15;;;;;;;7.39;70.17;101443.01;1712391;82;26422;-77
2021/03/24 09:35:49;;;;;;;31.45;14.90;;;;;;;7.41;69.78;101441.03;1795143;78;25410;-79
2021/03/24 09:38:20;;;;;;;26.52;12.30;;;;;;;7.50;70.04;101435.32;1798510;77;32632;-79
2021/03/24 09:40:56;;;;;;;21.17;12.85;;;;;;;7.67;70.30;101430.05;1756416;80;25898;-78
2021/03/24 09:43:33;;;;;;;22.48;12.82;;;;;;;7.79;69.87;101428.86;1783740;79;25818;-78
2021/03/24 09:46:11;;;;;;;17.67;11.88;;;;;;;7.91;69.72;101430.84;1752121;79;25621;-78
2021/03/24 09:48:49;;;;;;;23.07;12.55;;;;;;;7.99;69.03;101420.74;1747526;79;25732;-78
2021/03/24 09:51:27;;;;;;;26.12;14.50;;;;;;;8.06;69.01;101427.16;1751088;80;27351;-80
2021/03/24 09:54:06;;;;;;;26.33;14.30;;;;;;;8.16;68.87;101423.92;1767512;79;26046;-79
2021/03/24 09:56:34;;;;;;;26.30;15.30;;;;;;;8.20;68.74;101421.30;1773776;79;25913;-79
2021/03/24 09:59:21;;;;;;;26.82;14.07;;;;;;;8.22;68.55;101421.50;1767722;79;26456;-79
2021/03/24 10:02:20;;;;;;;24.32;13.60;;;;;;;8.26;68.60;101422.90;1721962;80;26050;-79
2021/03/24 10:05:01;;;;;;;26.33;13.80;;;;;;;8.32;68.36;101419.62;1756112;80;27564;-79
2021/03/24 10:07:30;;;;;;;;;;;;;;;8.38;68.01;101417.67;1748781;80;26421;-78
2021/03/24 10:10:21;;;;;;;22.32;13.18;;;;;;;8.44;67.49;101414.41;1738119;79;25754;-78
2021/03/24 10:13:02;;;;;;;19.85;13.50;;;;;;;8.48;68.00;101414.94;1747278;79;26283;-78
2021/03/24 10:15:55;;;;;;;21.73;12.60;;;;;;;8.53;67.49;101409.46;1726176;80;26731;-78
2021/03/24 10:18:36;;;;;;;21.25;13.25;;;;;;;8.63;67.44;101407.21;1770536;79;27532;-77
2021/03/24 10:21:25;;;;;;;23.02;13.22;;;;;;;8.69;67.26;101407.92;1766450;79;26063;-77
2021/03/24 10:24:10;;;;;;;21.70;13.32;;;;;;;8.77;66.79;101404.81;1747402;79;25737;-78
2021/03/24 10:26:54;;;;;;;20.12;11.85;;;;;;;8.76;66.31;101405.83;1750588;79;26357;-79
2021/03/24 10:29:33;;;;;;;20.20;11.25;;;;;;;8.79;66.58;101405.50;1770076;79;25736;-79
2021/03/24 10:32:23;;;;;;;22.10;12.03;;;;;;;8.81;66.06;101404.03;1758868;79;28547;-77
2021/03/24 10:34:57;;;;;;;20.12;12.23;;;;;;;8.83;66.00;101396.17;1768199;79;26098;-77
2021/03/24 10:37:33;;;;;;;19.60;11.88;;;;;;;8.86;66.03;101394.55;1751386;79;26463;-77
2021/03/24 10:40:08;;;;;;;19.20;13.48;;;;;;;8.87;65.92;101396.72;1775819;78;25776;-79
2021/03/24 10:42:50;;;;;;;18.02;12.68;;;;;;;8.89;66.08;101392.91;1752088;79;25795;-78
2021/03/24 10:45:37;;;;;;;18.85;12.33;;;;;;;8.91;65.33;101390.91;1732569;78;27355;-78
2021/03/24 10:48:16;;;;;;;19.48;12.37;;;;;;;8.90;64.82;101395.91;1777243;78;26537;-78
2021/03/24 10:51:15;;;;;;;23.47;12.95;;;;;;;8.88;65.20;101397.89;1749570;80;25823;-78
2021/03/24 10:53:42;;;;;;;29.07;12.35;;;;;;;8.91;65.06;101394.92;1742144;80;26422;-77
2021/03/24 10:56:36;;;;;;;19.90;12.30;;;;;;;8.96;65.15;101390.45;1752513;79;25811;-77
2021/03/24 10:59:25;;;;;;;20.32;12.20;;;;;;;9.00;64.64;101389.95;1752982;79;27079;-78
2021/03/24 11:02:22;;;;;;;17.27;11.88;;;;;;;9.06;64.25;101382.66;1730057;81;25899;-77
2021/03/24 11:04:58;;;;;;;16.93;11.25;;;;;;;9.11;64.31;101382.19;1775008;79;26355;-77
2021/03/24 11:08:05;;;;;;;20.17;11.30;;;;;;;9.17;64.60;101378.36;1752158;79;26981;-77
2021/03/24 11:10:51;;;;;;;14.33;10.20;;;;;;;9.23;63.64;101378.23;1731993;79;26699;-78
2021/03/24 11:13:39;;;;;;;16.30;11.10;;;;;;;9.25;63.56;101375.75;1740949;79;27628;-78
2021/03/24 11:16:28;;;;;;;17.25;12.03;;;;;;;9.26;63.44;101369.88;1782003;79;25860;-79
2021/03/24 11:19:25;;;;;;;19.75;12.43;;;;;;;9.28;63.47;101370.06;1760706;79;26351;-78
2021/03/24 11:22:23;;;;;;;18.80;12.47;;;;;;;9.36;63.51;101373.30;1729762;81;25756;-79
2021/03/24 11:24:59;;;;;;;18.05;12.20;;;;;;;9.43;63.32;101368.15;1752751;79;26280;-78
2021/03/24 11:27:59;;;;;;;16.87;12.03;;;;;;;9.41;63.09;101372.30;1775667;79;28490;-78
2021/03/24 11:33:06;;;;;;;33.40;17.77;;;;;;;9.43;62.85;101361.47;1801260;77;25680;-80
2021/03/24 11:35:53;;;;;;;22.73;13.28;;;;;;;9.39;62.11;101360.92;1717182;80;25869;-78
2021/03/24 11:38:49;;;;;;;22.90;14.83;;;;;;;9.36;62.56;101363.94;1754038;80;28437;-79
2021/03/24 11:41:27;;;;;;;15.72;11.68;;;;;;;9.36;62.15;101364.43;1724969;80;25844;-78
2021/03/24 11:44:05;;;;;;;16.20;12.85;;;;;;;9.24;61.83;101362.52;1692406;80;25893;-78
2021/03/24 11:46:47;;;;;;;14.47;10.95;;;;;;;9.19;61.98;101363.52;1709984;80;26011;-79
2021/03/24 11:49:49;;;;;;;17.45;10.72;;;;;;;9.12;61.88;101361.98;1741485;80;26410;-79
2021/03/24 11:52:41;;;;;;;13.83;10.48;;;;;;;9.05;62.08;101360.92;1736783;80;27539;-78
2021/03/24 11:55:32;;;;;;;15.72;10.88;;;;;;;8.99;62.02;101361.56;1713997;80;25800;-77
2021/03/24 11:58:20;;;;;;;19.55;11.05;;;;;;;8.98;62.36;101361.21;1698165;80;25736;-77
2021/03/24 12:01:08;;;;;;;14.80;10.28;;;;;;;8.99;62.58;101363.39;1722928;82;25895;-77
2021/03/24 12:03:50;;;;;;;17.07;11.78;;;;;;;9.01;63.01;101362.73;1666944;83;26565;-77
2021/03/24 12:06:26;;;;;;;16.37;11.48;;;;;;;9.08;63.19;101359.78;1669996;85;27547;-78
2021/03/24 12:09:10;;;;;;;16.75;10.43;;;;;;;9.14;62.47;101356.47;1794623;79;26009;-78
2021/03/24 12:11:40;;;;;;;17.07;11.70;;;;;;;9.06;62.39;101360.44;1749247;80;26360;-78
2021/03/24 12:14:25;;;;;;;15.78;10.90;;;;;;;9.05;62.60;101358.75;1767290;80;27591;-79
2021/03/24 12:17:00;;;;;;;17.15;10.93;;;;;;;9.05;62.52;101359.59;1730704;80;25773;-80
2021/03/24 12:22:26;;;;;;;15.50;10.82;;;;;;;9.10;62.30;101358.63;1824952;77;25766;-78
2021/03/24 12:25:30;;;;;;;18.37;13.10;;;;;;;9.06;62.61;101352.42;1727579;81;25868;-78
2021/03/24 12:28:06;;;;;;;24.07;15.68;;;;;;;9.09;62.65;101354.27;1769287;81;27524;-79
2021/03/24 12:30:45;;;;;;;21.27;12.55;;;;;;;9.13;62.98;101358.81;1724679;80;25932;-79
2021/03/24 12:33:22;;;;;;;20.65;14.30;;;;;;;9.11;62.37;101353.61;1768911;80;25816;-79
2021/03/24 12:36:03;;;;;;;16.32;11.12;;;;;;;9.11;62.87;101352.80;1746909;80;25661;-78
2021/03/24 12:38:42;;;;;;;16.25;11.05;;;;;;;9.13;62.44;101343.59;1768042;80;25963;-78
2021/03/24 12:41:10;;;;;;;17.27;12.10;;;;;;;9.12;62.14;101347.28;1724707;80;27621;-78